sensor_id;sensor_type;location;lat;lon;timestamp;temperature;humidity
4293;DHT22;2160;51.172;6.808;2023-06-22T04:01:37;25.70;96.00
4293;DHT22;2160;51.172;6.808;2023-06-22T04:04:05;25.60;95.90
4293;DHT22;2160;51.172;6.808;2023-06-22T04:06:32;25.70;95.90
4293;DHT22;2160;51.172;6.808;2023-06-22T04:09:00;25.80;96.20
4293;DHT22;2160;51.172;6.808;2023-06-22T04:11:27;25.80;96.10
4293;DHT22;2160;51.172;6.808;2023-06-22T04:13:54;25.90;96.30
4293;DHT22;2160;51.172;6.808;2023-06-22T04:16:21;25.90;96.50
4293;DHT22;2160;51.172;6.808;2023-06-22T04:18:49;25.80;96.50
4293;DHT22;2160;51.172;6.808;2023-06-22T04:21:16;25.80;96.40
4293;DHT22;2160;51.172;6.808;2023-06-22T04:23:45;25.80;96.90
4293;DHT22;2160;51.172;6.808;2023-06-22T04:26:12;25.70;96.80
4293;DHT22;2160;51.172;6.808;2023-06-22T04:28:39;25.70;97.40
4293;DHT22;2160;51.172;6.808;2023-06-22T04:31:06;25.80;97.00
4293;DHT22;2160;51.172;6.808;2023-06-22T04:33:33;25.80;96.90
4293;DHT22;2160;51.172;6.808;2023-06-22T04:36:01;25.80;96.70
4293;DHT22;2160;51.172;6.808;2023-06-22T04:38:29;25.90;96.60
4293;DHT22;2160;51.172;6.808;2023-06-22T04:40:59;25.70;97.30
4293;DHT22;2160;51.172;6.808;2023-06-22T04:43:28;25.70;97.50
4293;DHT22;2160;51.172;6.808;2023-06-22T04:45:56;25.70;97.30
4293;DHT22;2160;51.172;6.808;2023-06-22T04:48:29;25.80;97.30
4293;DHT22;2160;51.172;6.808;2023-06-22T04:50:58;25.80;97.50
4293;DHT22;2160;51.172;6.808;2023-06-22T04:53:31;25.80;98.00
4293;DHT22;2160;51.172;6.808;2023-06-22T04:55:58;25.80;97.90
4293;DHT22;2160;51.172;6.808;2023-06-22T04:58:25;25.80;97.90
4293;DHT22;2160;51.172;6.808;2023-06-22T05:00:54;25.90;97.90
4293;DHT22;2160;51.172;6.808;2023-06-22T05:03:24;25.90;97.60
4293;DHT22;2160;51.172;6.808;2023-06-22T05:05:51;25.90;97.60
4293;DHT22;2160;51.172;6.808;2023-06-22T05:08:19;25.90;96.80
4293;DHT22;2160;51.172;6.808;2023-06-22T05:10:47;25.90;96.60
4293;DHT22;2160;51.172;6.808;2023-06-22T05:13:14;25.90;97.20
4293;DHT22;2160;51.172;6.808;2023-06-22T05:15:41;25.90;97.30
4293;DHT22;2160;51.172;6.808;2023-06-22T05:18:09;25.90;97.30
4293;DHT22;2160;51.172;6.808;2023-06-22T05:20:37;25.90;97.40
4293;DHT22;2160;51.172;6.808;2023-06-22T05:23:04;25.80;96.80
4293;DHT22;2160;51.172;6.808;2023-06-22T05:25:31;25.80;96.40
4293;DHT22;2160;51.172;6.808;2023-06-22T05:28:00;25.80;96.80
4293;DHT22;2160;51.172;6.808;2023-06-22T05:30:27;25.80;96.70
4293;DHT22;2160;51.172;6.808;2023-06-22T05:32:54;25.80;96.40
4293;DHT22;2160;51.172;6.808;2023-06-22T05:35:21;25.80;98.00
4293;DHT22;2160;51.172;6.808;2023-06-22T05:37:48;25.90;97.40
4293;DHT22;2160;51.172;6.808;2023-06-22T05:40:15;25.90;97.80
4293;DHT22;2160;51.172;6.808;2023-06-22T05:42:42;26.00;97.50
4293;DHT22;2160;51.172;6.808;2023-06-22T05:45:11;25.90;97.00
4293;DHT22;2160;51.172;6.808;2023-06-22T05:47:37;26.00;96.90
4293;DHT22;2160;51.172;6.808;2023-06-22T05:50:05;25.90;97.10
4293;DHT22;2160;51.172;6.808;2023-06-22T05:52:34;25.90;96.70
4293;DHT22;2160;51.172;6.808;2023-06-22T05:55:02;25.90;97.20
4293;DHT22;2160;51.172;6.808;2023-06-22T05:57:29;26.00;97.00
4293;DHT22;2160;51.172;6.808;2023-06-22T05:59:56;26.00;96.90
4293;DHT22;2160;51.172;6.808;2023-06-22T06:02:24;26.00;96.60
4293;DHT22;2160;51.172;6.808;2023-06-22T06:04:51;26.00;96.60
4293;DHT22;2160;51.172;6.808;2023-06-22T06:07:19;26.00;96.90
4293;DHT22;2160;51.172;6.808;2023-06-22T06:09:47;26.00;97.10
4293;DHT22;2160;51.172;6.808;2023-06-22T06:12:14;26.00;96.90
4293;DHT22;2160;51.172;6.808;2023-06-22T06:14:41;25.90;97.70
4293;DHT22;2160;51.172;6.808;2023-06-22T06:17:08;25.90;97.20
4293;DHT22;2160;51.172;6.808;2023-06-22T06:19:36;26.00;97.80
4293;DHT22;2160;51.172;6.808;2023-06-22T06:22:04;25.90;97.80
4293;DHT22;2160;51.172;6.808;2023-06-22T06:24:31;25.90;97.60
4293;DHT22;2160;51.172;6.808;2023-06-22T06:26:58;25.90;97.90
4293;DHT22;2160;51.172;6.808;2023-06-22T06:29:25;26.00;98.10
4293;DHT22;2160;51.172;6.808;2023-06-22T06:31:52;26.00;98.00
4293;DHT22;2160;51.172;6.808;2023-06-22T06:34:19;26.00;98.60
4293;DHT22;2160;51.172;6.808;2023-06-22T06:36:47;26.00;98.30
4293;DHT22;2160;51.172;6.808;2023-06-22T06:39:14;26.10;99.50
4293;DHT22;2160;51.172;6.808;2023-06-22T06:41:42;26.00;99.00
4293;DHT22;2160;51.172;6.808;2023-06-22T06:44:14;26.00;99.20
4293;DHT22;2160;51.172;6.808;2023-06-22T06:46:41;26.00;99.90
4293;DHT22;2160;51.172;6.808;2023-06-22T06:49:08;26.00;99.90
4293;DHT22;2160;51.172;6.808;2023-06-22T06:51:35;26.10;99.90
4293;DHT22;2160;51.172;6.808;2023-06-22T06:54:04;26.00;99.90
4293;DHT22;2160;51.172;6.808;2023-06-22T06:56:30;26.10;99.90
4293;DHT22;2160;51.172;6.808;2023-06-22T06:58:58;26.00;99.90
4293;DHT22;2160;51.172;6.808;2023-06-22T07:01:25;26.00;99.90
4293;DHT22;2160;51.172;6.808;2023-06-22T07:03:52;25.90;99.90
4293;DHT22;2160;51.172;6.808;2023-06-22T07:06:19;25.70;99.90
4293;DHT22;2160;51.172;6.808;2023-06-22T07:08:46;25.80;99.90
4293;DHT22;2160;51.172;6.808;2023-06-22T07:11:14;25.80;99.90
4293;DHT22;2160;51.172;6.808;2023-06-22T07:13:41;25.80;99.90
4293;DHT22;2160;51.172;6.808;2023-06-22T07:16:08;25.60;99.90
4293;DHT22;2160;51.172;6.808;2023-06-22T07:18:35;25.60;99.90
4293;DHT22;2160;51.172;6.808;2023-06-22T07:21:02;25.50;99.90
4293;DHT22;2160;51.172;6.808;2023-06-22T07:23:32;25.30;99.90
4293;DHT22;2160;51.172;6.808;2023-06-22T07:25:59;25.30;99.90
4293;DHT22;2160;51.172;6.808;2023-06-22T07:28:28;25.30;99.90
4293;DHT22;2160;51.172;6.808;2023-06-22T07:30:56;25.30;99.90
4293;DHT22;2160;51.172;6.808;2023-06-22T07:33:23;25.20;99.90
4293;DHT22;2160;51.172;6.808;2023-06-22T07:35:50;25.20;99.90
4293;DHT22;2160;51.172;6.808;2023-06-22T07:38:18;25.20;99.90
4293;DHT22;2160;51.172;6.808;2023-06-22T07:40:45;25.20;99.90
4293;DHT22;2160;51.172;6.808;2023-06-22T07:43:12;25.10;99.90
4293;DHT22;2160;51.172;6.808;2023-06-22T07:45:41;25.20;99.90
4293;DHT22;2160;51.172;6.808;2023-06-22T07:48:19;25.10;99.90
4293;DHT22;2160;51.172;6.808;2023-06-22T07:50:46;25.10;99.90
4293;DHT22;2160;51.172;6.808;2023-06-22T07:53:13;25.20;99.90
4293;DHT22;2160;51.172;6.808;2023-06-22T07:55:40;25.20;99.90
4293;DHT22;2160;51.172;6.808;2023-06-22T07:58:07;25.20;99.90
4293;DHT22;2160;51.172;6.808;2023-06-22T08:00:34;25.20;99.90
4293;DHT22;2160;51.172;6.808;2023-06-22T08:03:03;25.10;99.90
4293;DHT22;2160;51.172;6.808;2023-06-22T08:05:30;25.10;99.90
4293;DHT22;2160;51.172;6.808;2023-06-22T08:07:57;25.10;99.90
4293;DHT22;2160;51.172;6.808;2023-06-22T08:10:24;25.20;99.90
4293;DHT22;2160;51.172;6.808;2023-06-22T08:12:51;25.20;99.90
4293;DHT22;2160;51.172;6.808;2023-06-22T08:15:18;25.40;99.90
4293;DHT22;2160;51.172;6.808;2023-06-22T08:17:45;25.60;99.90
4293;DHT22;2160;51.172;6.808;2023-06-22T08:20:14;25.70;99.90
4293;DHT22;2160;51.172;6.808;2023-06-22T08:22:42;25.80;99.90
4293;DHT22;2160;51.172;6.808;2023-06-22T08:25:10;25.90;99.90
4293;DHT22;2160;51.172;6.808;2023-06-22T08:27:37;26.00;99.90
4293;DHT22;2160;51.172;6.808;2023-06-22T08:30:05;26.00;99.90
4293;DHT22;2160;51.172;6.808;2023-06-22T08:32:32;26.10;99.90
4293;DHT22;2160;51.172;6.808;2023-06-22T08:34:59;26.10;99.90
4293;DHT22;2160;51.172;6.808;2023-06-22T08:37:28;26.20;99.90
4293;DHT22;2160;51.172;6.808;2023-06-22T08:39:58;26.30;99.90
4293;DHT22;2160;51.172;6.808;2023-06-22T08:42:25;26.40;99.90
4293;DHT22;2160;51.172;6.808;2023-06-22T08:44:52;26.50;99.90
4293;DHT22;2160;51.172;6.808;2023-06-22T08:47:19;26.40;99.90
4293;DHT22;2160;51.172;6.808;2023-06-22T08:49:47;26.40;99.90
4293;DHT22;2160;51.172;6.808;2023-06-22T08:52:14;26.50;99.90
4293;DHT22;2160;51.172;6.808;2023-06-22T08:54:42;26.60;99.90
4293;DHT22;2160;51.172;6.808;2023-06-22T08:57:09;26.70;99.90
4293;DHT22;2160;51.172;6.808;2023-06-22T08:59:36;26.70;99.90
4293;DHT22;2160;51.172;6.808;2023-06-22T09:02:04;26.70;99.90
4293;DHT22;2160;51.172;6.808;2023-06-22T09:04:31;26.90;99.90
4293;DHT22;2160;51.172;6.808;2023-06-22T09:07:00;27.00;99.90
4293;DHT22;2160;51.172;6.808;2023-06-22T09:09:27;27.10;99.90
4293;DHT22;2160;51.172;6.808;2023-06-22T09:11:55;27.00;99.90
4293;DHT22;2160;51.172;6.808;2023-06-22T09:14:22;27.10;99.90
4293;DHT22;2160;51.172;6.808;2023-06-22T09:16:49;27.10;99.90
4293;DHT22;2160;51.172;6.808;2023-06-22T09:19:16;27.30;99.90
4293;DHT22;2160;51.172;6.808;2023-06-22T09:21:43;27.40;99.90
4293;DHT22;2160;51.172;6.808;2023-06-22T09:24:11;27.50;99.90
4293;DHT22;2160;51.172;6.808;2023-06-22T09:26:38;27.70;99.90
4293;DHT22;2160;51.172;6.808;2023-06-22T09:29:06;27.80;99.90
4293;DHT22;2160;51.172;6.808;2023-06-22T09:31:33;28.00;99.90
4293;DHT22;2160;51.172;6.808;2023-06-22T09:34:00;28.00;99.90
4293;DHT22;2160;51.172;6.808;2023-06-22T09:36:27;28.10;99.90
4293;DHT22;2160;51.172;6.808;2023-06-22T09:38:54;28.30;99.90
4293;DHT22;2160;51.172;6.808;2023-06-22T09:41:24;28.40;99.90
4293;DHT22;2160;51.172;6.808;2023-06-22T09:43:51;28.40;99.90
4293;DHT22;2160;51.172;6.808;2023-06-22T09:46:19;28.50;99.90
4293;DHT22;2160;51.172;6.808;2023-06-22T09:48:50;28.70;99.90
4293;DHT22;2160;51.172;6.808;2023-06-22T09:51:17;28.70;99.90
4293;DHT22;2160;51.172;6.808;2023-06-22T09:53:45;28.80;99.90
4293;DHT22;2160;51.172;6.808;2023-06-22T09:56:12;28.90;99.90
4293;DHT22;2160;51.172;6.808;2023-06-22T09:58:41;28.80;99.90
4293;DHT22;2160;51.172;6.808;2023-06-22T10:01:08;28.80;99.90
4293;DHT22;2160;51.172;6.808;2023-06-22T10:03:37;28.90;99.90
4293;DHT22;2160;51.172;6.808;2023-06-22T10:06:04;29.10;99.90
4293;DHT22;2160;51.172;6.808;2023-06-22T10:08:31;29.20;99.90
4293;DHT22;2160;51.172;6.808;2023-06-22T10:10:58;29.40;99.90
4293;DHT22;2160;51.172;6.808;2023-06-22T10:13:25;29.70;99.90
4293;DHT22;2160;51.172;6.808;2023-06-22T10:15:51;29.70;99.90
4293;DHT22;2160;51.172;6.808;2023-06-22T10:18:19;29.70;99.90
4293;DHT22;2160;51.172;6.808;2023-06-22T10:20:49;29.70;99.90
4293;DHT22;2160;51.172;6.808;2023-06-22T10:23:17;29.80;99.90
4293;DHT22;2160;51.172;6.808;2023-06-22T10:25:44;29.80;99.90
4293;DHT22;2160;51.172;6.808;2023-06-22T10:28:11;29.90;99.90
4293;DHT22;2160;51.172;6.808;2023-06-22T10:30:38;30.00;99.90
4293;DHT22;2160;51.172;6.808;2023-06-22T10:33:07;30.20;99.90
4293;DHT22;2160;51.172;6.808;2023-06-22T10:35:34;30.20;99.90
4293;DHT22;2160;51.172;6.808;2023-06-22T10:38:02;30.20;99.90
4293;DHT22;2160;51.172;6.808;2023-06-22T10:40:29;30.20;99.90
4293;DHT22;2160;51.172;6.808;2023-06-22T10:42:56;30.20;99.90
4293;DHT22;2160;51.172;6.808;2023-06-22T10:45:23;29.90;99.90
4293;DHT22;2160;51.172;6.808;2023-06-22T10:47:50;29.90;99.90
4293;DHT22;2160;51.172;6.808;2023-06-22T10:50:18;29.90;99.90
4293;DHT22;2160;51.172;6.808;2023-06-22T10:52:45;29.70;99.90
4293;DHT22;2160;51.172;6.808;2023-06-22T10:55:14;29.40;99.90
4293;DHT22;2160;51.172;6.808;2023-06-22T10:57:41;28.90;99.90
4293;DHT22;2160;51.172;6.808;2023-06-22T11:00:11;28.80;99.90
4293;DHT22;2160;51.172;6.808;2023-06-22T11:02:38;28.70;99.90
4293;DHT22;2160;51.172;6.808;2023-06-22T11:05:06;28.60;99.90
4293;DHT22;2160;51.172;6.808;2023-06-22T11:07:33;28.40;99.90
4293;DHT22;2160;51.172;6.808;2023-06-22T11:10:00;28.40;99.90
4293;DHT22;2160;51.172;6.808;2023-06-22T11:12:28;28.20;99.90
4293;DHT22;2160;51.172;6.808;2023-06-22T11:14:55;28.10;99.90
4293;DHT22;2160;51.172;6.808;2023-06-22T11:17:23;28.00;99.90
4293;DHT22;2160;51.172;6.808;2023-06-22T11:19:51;27.90;99.90
4293;DHT22;2160;51.172;6.808;2023-06-22T11:22:18;27.90;99.90
4293;DHT22;2160;51.172;6.808;2023-06-22T11:24:45;27.80;99.90
4293;DHT22;2160;51.172;6.808;2023-06-22T11:27:11;27.80;99.90
4293;DHT22;2160;51.172;6.808;2023-06-22T11:29:40;27.70;99.90
4293;DHT22;2160;51.172;6.808;2023-06-22T11:32:07;27.70;99.90
4293;DHT22;2160;51.172;6.808;2023-06-22T11:34:34;27.60;99.90
4293;DHT22;2160;51.172;6.808;2023-06-22T11:37:01;27.60;99.90
4293;DHT22;2160;51.172;6.808;2023-06-22T11:39:28;27.50;99.90
4293;DHT22;2160;51.172;6.808;2023-06-22T11:41:55;27.40;99.90
4293;DHT22;2160;51.172;6.808;2023-06-22T11:44:22;27.30;99.90
4293;DHT22;2160;51.172;6.808;2023-06-22T11:46:50;27.30;99.90
4293;DHT22;2160;51.172;6.808;2023-06-22T11:49:17;27.20;99.90
4293;DHT22;2160;51.172;6.808;2023-06-22T11:51:44;27.20;99.90
4293;DHT22;2160;51.172;6.808;2023-06-22T11:54:11;27.20;99.90
4293;DHT22;2160;51.172;6.808;2023-06-22T11:56:38;26.90;99.90
4293;DHT22;2160;51.172;6.808;2023-06-22T11:59:05;26.70;99.90
4293;DHT22;2160;51.172;6.808;2023-06-22T12:01:32;26.40;99.90
4293;DHT22;2160;51.172;6.808;2023-06-22T12:04:01;26.30;99.90
4293;DHT22;2160;51.172;6.808;2023-06-22T12:06:33;26.10;99.90
4293;DHT22;2160;51.172;6.808;2023-06-22T12:09:02;26.20;99.90
4293;DHT22;2160;51.172;6.808;2023-06-22T12:11:30;26.20;99.90
4293;DHT22;2160;51.172;6.808;2023-06-22T12:13:57;26.20;99.90
4293;DHT22;2160;51.172;6.808;2023-06-22T12:16:27;26.30;99.90
4293;DHT22;2160;51.172;6.808;2023-06-22T12:18:54;26.40;99.90
4293;DHT22;2160;51.172;6.808;2023-06-22T12:21:22;26.40;99.90
4293;DHT22;2160;51.172;6.808;2023-06-22T12:23:49;26.40;99.90
4293;DHT22;2160;51.172;6.808;2023-06-22T12:26:16;26.30;99.90
4293;DHT22;2160;51.172;6.808;2023-06-22T12:28:43;26.20;99.90
4293;DHT22;2160;51.172;6.808;2023-06-22T12:31:10;26.20;99.90
4293;DHT22;2160;51.172;6.808;2023-06-22T12:33:37;26.30;99.90
4293;DHT22;2160;51.172;6.808;2023-06-22T12:36:04;26.40;99.90
4293;DHT22;2160;51.172;6.808;2023-06-22T12:38:33;26.40;99.90
4293;DHT22;2160;51.172;6.808;2023-06-22T12:41:00;26.60;99.90
4293;DHT22;2160;51.172;6.808;2023-06-22T12:43:27;26.70;99.90
4293;DHT22;2160;51.172;6.808;2023-06-22T12:45:54;26.60;99.90
4293;DHT22;2160;51.172;6.808;2023-06-22T12:48:21;26.40;99.90
4293;DHT22;2160;51.172;6.808;2023-06-22T12:50:48;26.50;99.90
4293;DHT22;2160;51.172;6.808;2023-06-22T12:53:15;26.50;99.90
4293;DHT22;2160;51.172;6.808;2023-06-22T12:55:44;26.70;99.90
4293;DHT22;2160;51.172;6.808;2023-06-22T12:58:11;26.80;99.90
4293;DHT22;2160;51.172;6.808;2023-06-22T13:00:38;26.90;99.90
4293;DHT22;2160;51.172;6.808;2023-06-22T13:03:05;27.00;99.90
4293;DHT22;2160;51.172;6.808;2023-06-22T13:05:32;26.90;99.90
4293;DHT22;2160;51.172;6.808;2023-06-22T13:08:00;26.90;99.90
4293;DHT22;2160;51.172;6.808;2023-06-22T13:10:27;26.90;99.90
4293;DHT22;2160;51.172;6.808;2023-06-22T13:12:55;26.90;99.90
4293;DHT22;2160;51.172;6.808;2023-06-22T13:15:26;26.70;99.90
4293;DHT22;2160;51.172;6.808;2023-06-22T13:17:53;26.60;99.90
4293;DHT22;2160;51.172;6.808;2023-06-22T13:20:20;26.60;99.90
4293;DHT22;2160;51.172;6.808;2023-06-22T13:22:47;26.60;99.90
4293;DHT22;2160;51.172;6.808;2023-06-22T13:25:14;26.60;99.90
4293;DHT22;2160;51.172;6.808;2023-06-22T13:27:45;26.70;99.90
4293;DHT22;2160;51.172;6.808;2023-06-22T13:30:14;26.80;99.90
4293;DHT22;2160;51.172;6.808;2023-06-22T13:32:41;27.00;99.90
4293;DHT22;2160;51.172;6.808;2023-06-22T13:35:09;26.90;99.90
4293;DHT22;2160;51.172;6.808;2023-06-22T13:37:36;26.80;99.90
4293;DHT22;2160;51.172;6.808;2023-06-22T13:40:04;26.90;99.90
4293;DHT22;2160;51.172;6.808;2023-06-22T13:42:32;27.00;99.90
4293;DHT22;2160;51.172;6.808;2023-06-22T13:45:00;27.10;99.90
4293;DHT22;2160;51.172;6.808;2023-06-22T13:47:29;27.10;99.90
4293;DHT22;2160;51.172;6.808;2023-06-22T13:49:57;27.10;99.90
4293;DHT22;2160;51.172;6.808;2023-06-22T13:52:24;27.10;99.90
4293;DHT22;2160;51.172;6.808;2023-06-22T13:54:51;27.10;99.90
4293;DHT22;2160;51.172;6.808;2023-06-22T13:57:18;27.10;99.90
4293;DHT22;2160;51.172;6.808;2023-06-22T13:59:45;27.30;99.90
4293;DHT22;2160;51.172;6.808;2023-06-22T14:02:12;27.30;99.90
4293;DHT22;2160;51.172;6.808;2023-06-22T14:04:41;27.00;99.90
4293;DHT22;2160;51.172;6.808;2023-06-22T14:07:10;27.00;99.90
4293;DHT22;2160;51.172;6.808;2023-06-22T14:09:37;26.90;99.90
4293;DHT22;2160;51.172;6.808;2023-06-22T14:12:04;26.90;99.90
4293;DHT22;2160;51.172;6.808;2023-06-22T14:14:32;26.90;99.90
4293;DHT22;2160;51.172;6.808;2023-06-22T14:16:59;27.00;99.90
4293;DHT22;2160;51.172;6.808;2023-06-22T14:19:26;27.10;99.90
4293;DHT22;2160;51.172;6.808;2023-06-22T14:21:55;27.10;99.90
4293;DHT22;2160;51.172;6.808;2023-06-22T14:24:22;27.10;99.90
4293;DHT22;2160;51.172;6.808;2023-06-22T14:26:49;27.00;99.90
4293;DHT22;2160;51.172;6.808;2023-06-22T14:29:16;26.90;99.90
4293;DHT22;2160;51.172;6.808;2023-06-22T14:31:45;26.90;99.90
4293;DHT22;2160;51.172;6.808;2023-06-22T14:34:12;26.80;99.90
4293;DHT22;2160;51.172;6.808;2023-06-22T14:36:39;26.70;99.90
4293;DHT22;2160;51.172;6.808;2023-06-22T14:39:08;26.70;99.90
4293;DHT22;2160;51.172;6.808;2023-06-22T14:41:35;26.70;99.90
4293;DHT22;2160;51.172;6.808;2023-06-22T14:44:02;26.70;99.90
4293;DHT22;2160;51.172;6.808;2023-06-22T14:46:29;26.70;99.90
4293;DHT22;2160;51.172;6.808;2023-06-22T14:48:56;26.60;99.90
4293;DHT22;2160;51.172;6.808;2023-06-22T14:51:23;26.60;99.90
4293;DHT22;2160;51.172;6.808;2023-06-22T14:53:50;26.60;99.90
4293;DHT22;2160;51.172;6.808;2023-06-22T14:56:19;26.70;99.90
4293;DHT22;2160;51.172;6.808;2023-06-22T14:58:46;26.50;99.90
4293;DHT22;2160;51.172;6.808;2023-06-22T15:01:13;26.70;99.90
4293;DHT22;2160;51.172;6.808;2023-06-22T15:03:40;26.60;99.90
4293;DHT22;2160;51.172;6.808;2023-06-22T15:06:08;26.40;99.90
4293;DHT22;2160;51.172;6.808;2023-06-22T15:08:37;26.40;99.90
4293;DHT22;2160;51.172;6.808;2023-06-22T15:11:04;26.50;99.90
4293;DHT22;2160;51.172;6.808;2023-06-22T15:13:33;26.50;99.90
4293;DHT22;2160;51.172;6.808;2023-06-22T15:16:00;26.40;99.90
4293;DHT22;2160;51.172;6.808;2023-06-22T15:18:28;26.50;99.90
4293;DHT22;2160;51.172;6.808;2023-06-22T15:20:55;26.40;99.90
4293;DHT22;2160;51.172;6.808;2023-06-22T15:23:24;26.40;99.90
4293;DHT22;2160;51.172;6.808;2023-06-22T15:25:51;26.40;99.90
4293;DHT22;2160;51.172;6.808;2023-06-22T15:28:18;26.40;99.90
4293;DHT22;2160;51.172;6.808;2023-06-22T15:30:48;26.20;99.90
4293;DHT22;2160;51.172;6.808;2023-06-22T15:33:15;26.20;99.90
4293;DHT22;2160;51.172;6.808;2023-06-22T15:35:43;26.00;99.90
4293;DHT22;2160;51.172;6.808;2023-06-22T15:38:10;26.00;99.90
4293;DHT22;2160;51.172;6.808;2023-06-22T15:40:37;25.90;99.90
4293;DHT22;2160;51.172;6.808;2023-06-22T15:43:04;25.90;99.90
4293;DHT22;2160;51.172;6.808;2023-06-22T15:45:31;25.90;99.90
4293;DHT22;2160;51.172;6.808;2023-06-22T15:48:00;25.80;99.90
4293;DHT22;2160;51.172;6.808;2023-06-22T15:50:27;25.60;99.90
4293;DHT22;2160;51.172;6.808;2023-06-22T15:52:53;25.60;99.90
4293;DHT22;2160;51.172;6.808;2023-06-22T15:55:21;25.70;99.90
4293;DHT22;2160;51.172;6.808;2023-06-22T15:57:48;25.90;99.90
4293;DHT22;2160;51.172;6.808;2023-06-22T16:00:17;25.60;99.90
4293;DHT22;2160;51.172;6.808;2023-06-22T16:02:45;25.40;99.90
4293;DHT22;2160;51.172;6.808;2023-06-22T16:05:14;25.30;99.90
4293;DHT22;2160;51.172;6.808;2023-06-22T16:07:41;25.30;99.90
4293;DHT22;2160;51.172;6.808;2023-06-22T16:10:08;25.20;99.90
4293;DHT22;2160;51.172;6.808;2023-06-22T16:12:36;25.30;99.90
4293;DHT22;2160;51.172;6.808;2023-06-22T16:15:04;25.30;99.90
4293;DHT22;2160;51.172;6.808;2023-06-22T16:17:31;25.30;99.90
4293;DHT22;2160;51.172;6.808;2023-06-22T16:20:03;25.40;99.90
4293;DHT22;2160;51.172;6.808;2023-06-22T16:22:33;25.30;99.90
4293;DHT22;2160;51.172;6.808;2023-06-22T16:25:00;25.20;99.90
4293;DHT22;2160;51.172;6.808;2023-06-22T16:27:28;25.40;99.90
4293;DHT22;2160;51.172;6.808;2023-06-22T16:29:57;25.50;99.90
4293;DHT22;2160;51.172;6.808;2023-06-22T16:32:24;25.40;99.90
4293;DHT22;2160;51.172;6.808;2023-06-22T16:34:51;25.30;99.90
4293;DHT22;2160;51.172;6.808;2023-06-22T16:37:18;25.30;99.90
4293;DHT22;2160;51.172;6.808;2023-06-22T16:39:46;25.20;99.90
4293;DHT22;2160;51.172;6.808;2023-06-22T16:42:13;25.00;99.90
4293;DHT22;2160;51.172;6.808;2023-06-22T16:44:40;25.00;99.90
4293;DHT22;2160;51.172;6.808;2023-06-22T16:47:07;24.80;99.90
4293;DHT22;2160;51.172;6.808;2023-06-22T16:49:34;24.80;99.90
4293;DHT22;2160;51.172;6.808;2023-06-22T16:52:02;24.80;99.90
4293;DHT22;2160;51.172;6.808;2023-06-22T16:54:29;24.70;99.90
4293;DHT22;2160;51.172;6.808;2023-06-22T16:57:00;24.60;99.90
4293;DHT22;2160;51.172;6.808;2023-06-22T16:59:28;24.60;99.90
4293;DHT22;2160;51.172;6.808;2023-06-22T17:01:56;24.50;99.90
4293;DHT22;2160;51.172;6.808;2023-06-22T17:04:25;24.40;99.90
4293;DHT22;2160;51.172;6.808;2023-06-22T17:06:55;24.40;99.90
4293;DHT22;2160;51.172;6.808;2023-06-22T17:09:25;24.40;99.90
4293;DHT22;2160;51.172;6.808;2023-06-22T17:11:53;24.40;99.90
4293;DHT22;2160;51.172;6.808;2023-06-22T17:14:23;24.30;99.90
4293;DHT22;2160;51.172;6.808;2023-06-22T17:16:50;24.20;99.90
4293;DHT22;2160;51.172;6.808;2023-06-22T17:19:19;24.20;99.90
4293;DHT22;2160;51.172;6.808;2023-06-22T17:21:46;24.10;99.90
4293;DHT22;2160;51.172;6.808;2023-06-22T17:24:16;24.00;99.90
4293;DHT22;2160;51.172;6.808;2023-06-22T17:26:47;24.00;99.90
4293;DHT22;2160;51.172;6.808;2023-06-22T17:29:15;23.90;99.90
4293;DHT22;2160;51.172;6.808;2023-06-22T17:31:43;23.90;99.90
4293;DHT22;2160;51.172;6.808;2023-06-22T17:34:11;23.90;99.90
4293;DHT22;2160;51.172;6.808;2023-06-22T17:36:42;23.90;99.90
4293;DHT22;2160;51.172;6.808;2023-06-22T17:39:10;23.90;99.90
4293;DHT22;2160;51.172;6.808;2023-06-22T17:41:38;23.70;99.90
4293;DHT22;2160;51.172;6.808;2023-06-22T17:44:05;23.60;99.90
4293;DHT22;2160;51.172;6.808;2023-06-22T17:46:36;23.60;99.90
4293;DHT22;2160;51.172;6.808;2023-06-22T17:49:09;23.60;99.90
4293;DHT22;2160;51.172;6.808;2023-06-22T17:51:39;23.50;99.90
4293;DHT22;2160;51.172;6.808;2023-06-22T17:54:06;23.40;99.90
4293;DHT22;2160;51.172;6.808;2023-06-22T17:56:33;23.40;99.90
4293;DHT22;2160;51.172;6.808;2023-06-22T17:59:01;23.30;99.90
4293;DHT22;2160;51.172;6.808;2023-06-22T18:01:29;23.50;99.90
4293;DHT22;2160;51.172;6.808;2023-06-22T18:03:56;23.40;99.90
4293;DHT22;2160;51.172;6.808;2023-06-22T18:06:27;23.20;99.90
4293;DHT22;2160;51.172;6.808;2023-06-22T18:08:57;23.10;99.90
4293;DHT22;2160;51.172;6.808;2023-06-22T18:11:30;22.90;99.90
4293;DHT22;2160;51.172;6.808;2023-06-22T18:13:59;22.90;99.90
4293;DHT22;2160;51.172;6.808;2023-06-22T18:16:27;22.90;99.90
4293;DHT22;2160;51.172;6.808;2023-06-22T18:18:56;22.80;99.90
4293;DHT22;2160;51.172;6.808;2023-06-22T18:21:25;22.80;99.90
4293;DHT22;2160;51.172;6.808;2023-06-22T18:23:53;22.70;99.90
4293;DHT22;2160;51.172;6.808;2023-06-22T18:26:21;22.70;99.90
4293;DHT22;2160;51.172;6.808;2023-06-22T18:28:50;22.60;99.90
4293;DHT22;2160;51.172;6.808;2023-06-22T18:31:19;22.80;99.90
4293;DHT22;2160;51.172;6.808;2023-06-22T18:33:48;22.90;99.90
4293;DHT22;2160;51.172;6.808;2023-06-22T18:36:19;22.90;99.90
4293;DHT22;2160;51.172;6.808;2023-06-22T18:38:49;22.80;99.90
4293;DHT22;2160;51.172;6.808;2023-06-22T18:41:23;22.70;99.90
4293;DHT22;2160;51.172;6.808;2023-06-22T18:43:54;22.80;99.90
4293;DHT22;2160;51.172;6.808;2023-06-22T18:46:30;22.70;99.90
4293;DHT22;2160;51.172;6.808;2023-06-22T18:49:02;22.70;99.90
4293;DHT22;2160;51.172;6.808;2023-06-22T18:51:49;22.50;99.90
4293;DHT22;2160;51.172;6.808;2023-06-22T18:54:21;22.30;99.90
4293;DHT22;2160;51.172;6.808;2023-06-22T18:56:55;22.30;99.90
4293;DHT22;2160;51.172;6.808;2023-06-22T18:59:46;22.30;99.90
4293;DHT22;2160;51.172;6.808;2023-06-22T19:02:15;22.20;99.90
4293;DHT22;2160;51.172;6.808;2023-06-22T19:04:43;22.00;99.90
4293;DHT22;2160;51.172;6.808;2023-06-22T19:07:11;21.80;99.90
4293;DHT22;2160;51.172;6.808;2023-06-22T19:09:40;21.70;99.90
4293;DHT22;2160;51.172;6.808;2023-06-22T19:12:17;21.80;99.90
4293;DHT22;2160;51.172;6.808;2023-06-22T19:15:09;21.80;99.90
4293;DHT22;2160;51.172;6.808;2023-06-22T19:17:37;21.70;99.90
4293;DHT22;2160;51.172;6.808;2023-06-22T19:20:05;21.50;99.90
4293;DHT22;2160;51.172;6.808;2023-06-22T19:22:49;21.50;99.90
4293;DHT22;2160;51.172;6.808;2023-06-22T19:25:22;21.50;99.90
4293;DHT22;2160;51.172;6.808;2023-06-22T19:27:52;21.50;99.90
4293;DHT22;2160;51.172;6.808;2023-06-22T19:30:21;21.40;99.90
4293;DHT22;2160;51.172;6.808;2023-06-22T19:32:48;21.20;99.90
4293;DHT22;2160;51.172;6.808;2023-06-22T19:35:16;21.20;99.90
4293;DHT22;2160;51.172;6.808;2023-06-22T19:37:45;21.10;99.90
4293;DHT22;2160;51.172;6.808;2023-06-22T19:40:14;21.00;99.90
4293;DHT22;2160;51.172;6.808;2023-06-22T19:42:43;20.70;99.90
4293;DHT22;2160;51.172;6.808;2023-06-22T19:45:15;20.50;99.90
4293;DHT22;2160;51.172;6.808;2023-06-22T19:47:44;20.50;99.90
4293;DHT22;2160;51.172;6.808;2023-06-22T19:50:12;20.50;99.90
4293;DHT22;2160;51.172;6.808;2023-06-22T19:52:41;20.40;99.90
4293;DHT22;2160;51.172;6.808;2023-06-22T19:55:09;20.30;99.90
4293;DHT22;2160;51.172;6.808;2023-06-22T19:57:41;20.20;99.90
4293;DHT22;2160;51.172;6.808;2023-06-22T20:00:11;20.20;99.90
4293;DHT22;2160;51.172;6.808;2023-06-22T20:02:42;20.00;99.90
4293;DHT22;2160;51.172;6.808;2023-06-22T20:05:11;19.90;99.90
4293;DHT22;2160;51.172;6.808;2023-06-22T20:07:39;19.90;99.90